FLTA4: Red River, Fulton, AR

Data processed at Tue May 21 2019 23:50


All information presented herein is the property of the government of the United States of America and may be revised or deleted at any time without prior notice.
Dissemination of this information without the expressed written consent of the Public Affairs Office, Tulsa District U.S. Army Corps of Engineers is strictly prohibited.
These data are gathered electronically and, as presented, have not undergone any form of quality control. These data are not guaranteed to be valid or correct.
Go to home page.
Go to station list.
Go to home page.

Upstream stations:

Downstream station:
Previous Day
Next Day
Current Day
    
SHEF ID:       FLTA4     Red River nr Fulton
STATION TYPE:  
Regulating: Stage =    25.00, Flow =   134144

               PRECIP     STAGE  RIV-FLOW   VOLTAGE
                   in        ft       cfs      volt
              Ccp-Rev   Ccp-Rev   Ccp-Rev   Ccp-Rev
(US/Central)
05/21 00:00      0.00     17.98     83713     12.50
05/21 01:00      0.00     17.94     83459     12.50
05/21 02:00      0.00     17.93     83396     12.50
05/21 03:00      0.00     17.88     83079     12.50
05/21 04:00      0.00     17.82     82699     12.40
05/21 05:00      0.00     17.78     82445     12.40
05/21 06:00      0.00     17.74     82193     12.40
05/21 07:00      0.00     17.70     81940     12.40
05/21 08:00      0.00     17.65     81624     12.60
05/21 09:00      0.00     17.58     81183     13.20
05/21 10:00      0.00     17.54     80931     13.00
05/21 11:00      0.00     17.50     80680     12.90
05/21 12:00      0.00     17.43     80240     12.80
05/21 13:00      0.00     17.37     79863     12.80
05/21 14:00      0.00     17.35     79738      ----
05/21 15:00      0.09     17.29     79362     12.80
05/21 16:00      0.00     17.26     79174     12.80
05/21 17:00      0.00     17.20     78799     12.70
05/21 18:00      0.09     17.18     78674     12.60
05/21 19:00      0.33     17.15     78487     12.60
05/21 20:00      0.15     17.13     78362     12.60
05/21 21:00      0.00     17.11     78237     12.50
05/21 22:00      0.00     17.07     77988     12.50
05/21 23:00      0.00     17.03     77739     12.50